Time;durP1;ratioP1;P1;durP2;ratioP2;P2;SDS_P1;SDS_P2;PMS_P1;PMS_P2;Temp;Humidity;BMP_temperature;BMP_pressure;BME280_temperature;BME280_humidity;BME280_pressure;Samples;Min_cycle;Max_cycle;Signal;HPM_P1;HPM_P2
2021/06/02 21:51:03;;;;;;;5.30;3.83;;;;;;;14.58;100.00;101200.31;1838975;76;25970;-68
2021/06/02 21:53:39;;;;;;;3.42;3.12;;;;;;;14.55;100.00;101202.23;1819036;79;21181;-71
2021/06/02 21:56:16;;;;;;;4.50;2.98;;;;;;;14.60;100.00;101200.86;1812322;79;22036;-70
2021/06/02 21:58:52;;;;;;;2.95;2.65;;;;;;;14.66;100.00;101195.57;1812359;79;21194;-76
2021/06/02 22:01:26;;;;;;;3.33;2.40;;;;;;;14.74;100.00;101203.41;1816011;79;21237;-73
2021/06/02 22:03:59;;;;;;;6.40;2.55;;;;;;;14.83;100.00;101198.98;1812073;79;21205;-74
2021/06/02 22:06:33;;;;;;;3.27;2.22;;;;;;;14.92;100.00;101201.50;1759526;81;21190;-69
2021/06/02 22:09:07;;;;;;;3.75;2.00;;;;;;;14.99;100.00;101197.91;1773145;80;21994;-70
2021/06/02 22:11:39;;;;;;;3.92;2.20;;;;;;;15.07;100.00;101198.74;1754393;81;21277;-71
2021/06/02 22:14:13;;;;;;;4.47;2.67;;;;;;;15.20;100.00;101194.55;1761941;81;21206;-70
2021/06/02 22:16:47;;;;;;;2.60;2.40;;;;;;;15.25;100.00;101191.20;1771905;80;21379;-75
2021/06/02 22:19:20;;;;;;;4.37;2.30;;;;;;;15.27;100.00;101191.76;1775671;80;21225;-70
2021/06/02 22:21:54;;;;;;;3.15;2.17;;;;;;;15.29;100.00;101194.28;1781751;80;21387;-71
2021/06/02 22:24:28;;;;;;;2.95;2.08;;;;;;;15.32;100.00;101190.40;1749985;81;21181;-70
2021/06/02 22:27:01;;;;;;;;;;;;;;;15.39;100.00;101192.94;1776636;80;21186;-71
2021/06/02 22:29:35;;;;;;;5.90;3.35;;;;;;;15.45;100.00;101191.81;1743827;82;20324;-75
2021/06/02 22:32:08;;;;;;;7.37;2.65;;;;;;;15.46;100.00;101190.11;1749620;81;21197;-69
2021/06/02 22:34:41;;;;;;;2.60;1.95;;;;;;;15.47;100.00;101194.58;1777379;80;21760;-70
2021/06/02 22:37:15;;;;;;;2.80;2.00;;;;;;;15.53;100.00;101189.84;1767988;80;21312;-71
2021/06/02 22:39:48;;;;;;;2.20;1.90;;;;;;;15.54;100.00;101188.72;1763147;81;22453;-69
2021/06/02 22:42:20;;;;;;;2.55;2.08;;;;;;;15.56;100.00;101189.27;1761455;80;21222;-72
2021/06/02 22:44:54;;;;;;;3.60;2.15;;;;;;;15.56;100.00;101183.12;1764938;81;21209;-70
2021/06/02 22:47:29;;;;;;;2.87;2.10;;;;;;;15.59;100.00;101188.72;1774381;79;21688;-70
2021/06/02 22:50:02;;;;;;;;;;;;;;;15.62;100.00;101186.19;1779779;80;21687;-70
2021/06/02 22:52:37;;;;;;;3.87;2.30;;;;;;;15.64;100.00;101186.73;1759360;80;20181;-73
2021/06/02 22:55:12;;;;;;;6.60;2.40;;;;;;;15.64;100.00;101179.73;1799467;79;21212;-69
2021/06/02 22:57:47;;;;;;;3.33;2.25;;;;;;;15.71;100.00;101188.69;1807858;79;21648;-69
2021/06/02 23:00:34;;;;;;;2.87;2.30;;;;;;;15.75;100.00;101184.20;1806685;79;21320;-78
2021/06/02 23:03:11;;;;;;;2.85;2.35;;;;;;;15.80;100.00;101186.16;1800987;79;21142;-69
2021/06/02 23:05:46;;;;;;;3.87;2.02;;;;;;;15.78;100.00;101179.45;1805820;79;21336;-78
2021/06/02 23:08:21;;;;;;;3.12;2.10;;;;;;;15.76;100.00;101178.88;1805826;79;21351;-79
2021/06/02 23:10:56;;;;;;;5.00;2.52;;;;;;;15.78;100.00;101175.26;1748191;81;21212;-77
2021/06/02 23:13:32;;;;;;;3.55;2.25;;;;;;;15.77;100.00;101176.94;1804053;79;21797;-71
2021/06/02 23:16:08;;;;;;;9.48;2.02;;;;;;;15.75;100.00;101177.75;1805892;79;21866;-73
2021/06/02 23:18:41;;;;;;;5.50;2.20;;;;;;;15.75;100.00;101171.61;1805050;79;21334;-68
2021/06/02 23:21:13;;;;;;;2.17;1.77;;;;;;;15.76;100.00;101177.48;1805675;79;21838;-68
2021/06/02 23:23:46;;;;;;;3.10;2.63;;;;;;;15.76;100.00;101181.68;1805722;79;21372;-68
2021/06/02 23:26:19;;;;;;;4.17;2.30;;;;;;;15.76;100.00;101180.86;1805619;79;21716;-67
2021/06/02 23:28:53;;;;;;;6.15;2.52;;;;;;;15.76;100.00;101171.88;1805437;79;21321;-68
2021/06/02 23:31:26;;;;;;;2.95;2.08;;;;;;;15.80;100.00;101175.80;1805555;79;21198;-68
2021/06/02 23:34:00;;;;;;;3.08;2.10;;;;;;;15.83;100.00;101174.41;1805443;79;21329;-68
2021/06/02 23:36:33;;;;;;;4.58;2.02;;;;;;;15.80;99.93;101175.80;1805865;79;21183;-66
2021/06/02 23:39:06;;;;;;;2.40;2.05;;;;;;;15.78;99.98;101175.26;1805622;79;21321;-67
2021/06/02 23:41:39;;;;;;;2.72;2.15;;;;;;;15.78;100.00;101172.45;1805784;79;21361;-69
2021/06/02 23:44:11;;;;;;;7.95;1.87;;;;;;;15.77;100.00;101174.95;1805530;79;21333;-69
2021/06/02 23:46:44;;;;;;;2.72;1.75;;;;;;;15.75;100.00;101173.01;1805503;79;21321;-68
2021/06/02 23:49:18;;;;;;;4.15;2.00;;;;;;;15.73;100.00;101175.27;1805358;79;21890;-69
2021/06/02 23:51:52;;;;;;;6.55;1.90;;;;;;;15.70;100.00;101175.81;1793905;79;21178;-68
2021/06/02 23:54:24;;;;;;;5.85;1.90;;;;;;;15.70;100.00;101167.41;1778505;80;21312;-69
2021/06/02 23:56:58;;;;;;;2.65;1.85;;;;;;;15.68;100.00;101176.66;1778545;80;21660;-69
2021/06/02 23:59:31;;;;;;;3.10;1.77;;;;;;;15.66;100.00;101174.72;1770163;80;21290;-68
